createdAt,value
2022-09-27T00:01:24.420Z,0.70
2022-09-27T00:04:29.114Z,0.90
2022-09-27T00:07:34.974Z,0.88
2022-09-27T00:10:39.388Z,0.80
2022-09-27T00:13:43.954Z,0.70
2022-09-27T00:16:48.858Z,0.70
2022-09-27T00:19:55.986Z,0.75
2022-09-27T00:23:00.414Z,0.80
2022-09-27T00:26:07.156Z,0.70
2022-09-27T00:29:11.940Z,0.60
2022-09-27T00:32:16.419Z,1.02
2022-09-27T00:35:20.671Z,0.70
2022-09-27T00:38:25.063Z,0.68
2022-09-27T00:41:36.153Z,0.45
2022-09-27T00:44:41.284Z,0.85
2022-09-27T00:48:18.394Z,0.70
2022-09-27T00:51:22.819Z,0.57
2022-09-27T00:54:30.931Z,0.70
2022-09-27T00:57:36.586Z,0.80
2022-09-27T01:00:49.252Z,0.60
2022-09-27T01:04:10.509Z,1.23
2022-09-27T01:07:15.323Z,0.50
2022-09-27T01:10:21.492Z,0.50
2022-09-27T01:14:02.975Z,0.60
2022-09-27T01:17:49.234Z,0.50
2022-09-27T01:21:33.731Z,0.47
2022-09-27T01:24:50.222Z,0.43
2022-09-27T01:28:40.311Z,0.60
2022-09-27T01:32:06.719Z,0.60
2022-09-27T01:35:34.545Z,0.55
2022-09-27T01:39:14.293Z,0.60
2022-09-27T01:42:48.742Z,0.50
2022-09-27T01:46:01.966Z,0.85
2022-09-27T01:49:45.337Z,0.50
2022-09-27T01:52:57.448Z,0.43
2022-09-27T01:56:24.775Z,0.65
2022-09-27T01:59:56.599Z,0.57
2022-09-27T02:03:24.848Z,0.50
2022-09-27T02:06:56.215Z,0.70
2022-09-27T02:10:18.522Z,0.50
2022-09-27T02:13:52.600Z,0.50
2022-09-27T02:17:55.695Z,0.40
2022-09-27T02:21:05.342Z,0.50
2022-09-27T02:24:19.172Z,0.50
2022-09-27T02:27:48.875Z,0.40
2022-09-27T02:30:56.848Z,0.65
2022-09-27T02:34:21.671Z,0.50
2022-09-27T02:37:26.326Z,0.30
2022-09-27T02:40:35.361Z,0.50
2022-09-27T02:43:40.007Z,0.50
2022-09-27T02:47:02.726Z,0.57
2022-09-27T02:50:08.585Z,0.50
2022-09-27T02:54:00.654Z,0.40
2022-09-27T02:57:57.536Z,0.60
2022-09-27T03:01:56.775Z,0.40
2022-09-27T03:05:35.245Z,0.40
2022-09-27T03:08:41.177Z,0.50
2022-09-27T03:11:45.670Z,0.40
2022-09-27T03:14:50.505Z,0.40
2022-09-27T03:18:18.114Z,0.40
2022-09-27T03:21:51.907Z,0.40
2022-09-27T03:24:57.559Z,0.40
2022-09-27T03:28:02.456Z,0.50
2022-09-27T03:31:07.198Z,0.30
2022-09-27T03:34:43.859Z,0.50
2022-09-27T03:37:48.314Z,0.50
2022-09-27T03:40:53.276Z,0.50
2022-09-27T03:43:59.735Z,1.08
2022-09-27T03:47:04.470Z,0.50
2022-09-27T03:50:11.714Z,0.50
2022-09-27T03:53:16.485Z,0.40
2022-09-27T03:56:20.898Z,0.40
2022-09-27T03:59:25.379Z,0.50
2022-09-27T04:02:48.875Z,0.40
2022-09-27T04:06:03.458Z,0.50
2022-09-27T04:09:15.582Z,0.50
2022-09-27T04:12:34.072Z,0.50
2022-09-27T04:15:39.482Z,0.50
2022-09-27T04:19:02.796Z,0.47
2022-09-27T04:22:16.321Z,0.47
2022-09-27T04:25:22.014Z,0.30
2022-09-27T04:28:29.807Z,0.40
2022-09-27T04:31:34.765Z,0.40
2022-09-27T04:35:19.050Z,0.80
2022-09-27T04:38:24.057Z,0.52
2022-09-27T04:41:29.528Z,0.50
2022-09-27T04:44:34.141Z,0.50
2022-09-27T04:47:46.603Z,0.50
2022-09-27T04:51:02.601Z,0.90
2022-09-27T04:54:07.398Z,0.70
2022-09-27T04:57:18.646Z,0.52
2022-09-27T05:00:23.271Z,0.60
2022-09-27T05:03:35.036Z,0.65
2022-09-27T05:06:47.619Z,0.70
2022-09-27T05:10:00.882Z,0.60
2022-09-27T05:13:06.605Z,0.70
2022-09-27T05:16:11.414Z,0.70
2022-09-27T05:19:25.047Z,0.70
2022-09-27T05:22:58.962Z,0.63
2022-09-27T05:26:07.479Z,0.68
2022-09-27T05:29:12.230Z,0.60
2022-09-27T05:32:19.364Z,0.73
2022-09-27T05:35:29.369Z,0.80
2022-09-27T05:38:36.947Z,0.70
2022-09-27T05:41:44.166Z,0.90
2022-09-27T05:44:48.917Z,0.70
2022-09-27T05:47:56.965Z,0.70
2022-09-27T05:51:02.221Z,0.70
2022-09-27T05:54:08.662Z,0.70
2022-09-27T05:57:14.274Z,0.68
2022-09-27T06:00:26.018Z,0.50
2022-09-27T06:03:31.136Z,0.60
2022-09-27T06:06:54.781Z,0.67
2022-09-27T06:09:59.709Z,0.68
2022-09-27T06:13:12.758Z,0.60
2022-09-27T06:16:19.798Z,0.60
2022-09-27T06:19:24.480Z,0.55
2022-09-27T06:22:29.266Z,0.60
2022-09-27T06:25:39.068Z,0.65
2022-09-27T06:28:57.120Z,0.57
2022-09-27T06:32:02.611Z,0.90
2022-09-27T06:35:25.044Z,0.60
2022-09-27T06:38:30.156Z,0.90
2022-09-27T06:41:57.564Z,0.90
2022-09-27T06:45:08.179Z,0.55
2022-09-27T06:48:36.098Z,0.65
2022-09-27T06:51:53.216Z,0.60
2022-09-27T06:54:59.542Z,0.70
2022-09-27T06:58:23.341Z,0.70
2022-09-27T07:02:00.608Z,0.47
2022-09-27T07:05:10.908Z,0.65
2022-09-27T07:08:21.891Z,0.70
2022-09-27T07:11:26.638Z,0.88
2022-09-27T07:14:33.598Z,0.52
2022-09-27T07:17:38.994Z,0.90
2022-09-27T07:20:43.497Z,0.60
2022-09-27T07:23:48.630Z,0.70
2022-09-27T07:26:53.266Z,0.45
2022-09-27T07:30:00.848Z,0.52
2022-09-27T07:33:08.708Z,1.00
2022-09-27T07:36:14.132Z,0.50
2022-09-27T07:39:22.162Z,0.70
2022-09-27T07:42:28.796Z,0.50
2022-09-27T07:45:34.713Z,0.60
2022-09-27T07:49:11.271Z,0.70
2022-09-27T07:52:51.063Z,0.45
2022-09-27T07:56:19.859Z,0.50
2022-09-27T07:59:24.359Z,0.50
2022-09-27T08:02:28.920Z,0.50
2022-09-27T08:05:36.299Z,0.70
2022-09-27T08:08:41.747Z,0.50
2022-09-27T08:11:46.758Z,0.55
2022-09-27T08:14:53.002Z,0.50
2022-09-27T08:17:57.563Z,0.60
2022-09-27T08:21:20.730Z,0.47
2022-09-27T08:24:43.886Z,0.50
2022-09-27T08:28:07.105Z,0.70
2022-09-27T08:31:27.405Z,0.70
2022-09-27T08:34:34.927Z,0.55
2022-09-27T08:37:39.738Z,0.50
2022-09-27T08:40:57.772Z,0.50
2022-09-27T08:44:14.202Z,0.60
2022-09-27T08:47:44.291Z,0.55
2022-09-27T08:50:49.616Z,0.70
2022-09-27T08:54:03.130Z,0.60
2022-09-27T08:57:12.831Z,0.57
2022-09-27T09:00:18.881Z,0.60
2022-09-27T09:03:30.078Z,0.63
2022-09-27T09:06:42.914Z,0.55
2022-09-27T09:10:39.550Z,0.52
2022-09-27T09:13:57.777Z,0.80
2022-09-27T09:17:32.946Z,0.60
2022-09-27T09:24:55.643Z,0.90
2022-09-27T09:28:47.383Z,0.63
2022-09-27T09:32:07.303Z,0.60
2022-09-27T09:35:55.484Z,0.70
2022-09-27T09:39:13.248Z,0.60
2022-09-27T09:42:47.171Z,0.70
2022-09-27T09:46:02.674Z,0.60
2022-09-27T09:49:23.406Z,0.65
2022-09-27T09:52:43.682Z,0.60
2022-09-27T09:56:05.407Z,0.57
2022-09-27T10:00:10.666Z,0.60
2022-09-27T10:03:20.977Z,0.70
2022-09-27T10:06:26.775Z,0.60
2022-09-27T10:09:33.564Z,0.50
2022-09-27T10:12:57.437Z,0.40
2022-09-27T10:16:12.562Z,0.70
2022-09-27T10:19:30.292Z,0.60
2022-09-27T10:22:42.727Z,0.70
2022-09-27T10:26:05.224Z,0.40
2022-09-27T10:29:37.370Z,0.52
2022-09-27T10:32:43.008Z,0.60
2022-09-27T10:36:29.216Z,0.50
2022-09-27T10:39:35.610Z,0.50
2022-09-27T10:42:40.455Z,0.30
2022-09-27T10:45:48.905Z,0.57
2022-09-27T10:49:27.480Z,0.68
2022-09-27T10:52:32.368Z,0.50
2022-09-27T10:55:37.841Z,0.60
2022-09-27T10:58:46.049Z,0.50
2022-09-27T11:01:52.978Z,0.50
2022-09-27T11:05:35.889Z,0.40
2022-09-27T11:08:40.791Z,0.45
2022-09-27T11:12:05.347Z,0.35
2022-09-27T11:15:24.385Z,0.50
2022-09-27T11:18:50.445Z,0.60
2022-09-27T11:22:15.806Z,0.80
2022-09-27T11:26:04.458Z,0.50
2022-09-27T11:29:53.192Z,0.38
2022-09-27T11:33:24.580Z,0.60
2022-09-27T11:37:10.856Z,0.40
2022-09-27T11:40:22.212Z,0.60
2022-09-27T11:44:05.379Z,0.30
2022-09-27T11:47:18.221Z,0.68
2022-09-27T11:50:43.891Z,0.50
2022-09-27T11:54:39.726Z,0.40
2022-09-27T11:58:00.924Z,0.40
2022-09-27T12:01:27.623Z,0.35
2022-09-27T12:05:08.271Z,0.45
2022-09-27T12:08:44.312Z,0.47
2022-09-27T12:11:54.455Z,0.50
2022-09-27T12:15:07.196Z,0.50
2022-09-27T12:18:32.288Z,0.40
2022-09-27T12:21:42.389Z,0.30
2022-09-27T12:24:47.497Z,0.35
2022-09-27T12:28:24.632Z,0.38
2022-09-27T12:32:18.698Z,0.30
2022-09-27T12:35:32.275Z,0.30
2022-09-27T12:38:57.576Z,0.40
2022-09-27T12:42:12.163Z,0.50
2022-09-27T12:45:54.700Z,0.40
2022-09-27T12:49:05.680Z,0.38
2022-09-27T12:52:23.086Z,0.40
2022-09-27T12:55:55.513Z,0.40
2022-09-27T12:59:12.276Z,0.35
2022-09-27T13:03:18.157Z,0.30
2022-09-27T13:06:53.170Z,0.30
2022-09-27T13:10:29.481Z,0.30
2022-09-27T13:13:39.807Z,0.40
2022-09-27T13:16:49.913Z,0.45
2022-09-27T13:19:56.036Z,0.35
2022-09-27T13:23:17.876Z,0.50
2022-09-27T13:26:32.588Z,0.43
2022-09-27T13:29:42.031Z,0.47
2022-09-27T13:33:10.538Z,0.40
2022-09-27T13:36:32.955Z,0.50
2022-09-27T13:39:43.022Z,0.30
2022-09-27T13:43:14.055Z,0.47
2022-09-27T13:46:33.539Z,0.40
2022-09-27T13:49:42.056Z,0.40
2022-09-27T13:53:08.122Z,0.35
2022-09-27T13:56:48.200Z,0.45
2022-09-27T13:59:59.895Z,0.40
2022-09-27T14:03:44.076Z,0.43
2022-09-27T14:06:55.489Z,0.50
2022-09-27T14:10:01.012Z,0.45
2022-09-27T14:13:09.063Z,0.40
2022-09-27T14:16:27.416Z,0.50
2022-09-27T14:19:32.074Z,0.40
2022-09-27T14:22:39.988Z,0.40
2022-09-27T14:25:50.478Z,0.40
2022-09-27T14:28:57.258Z,0.40
2022-09-27T14:32:13.149Z,0.32
2022-09-27T14:35:47.885Z,0.50
2022-09-27T14:38:53.293Z,0.32
2022-09-27T14:42:25.035Z,0.30
2022-09-27T14:45:38.352Z,0.30
2022-09-27T14:48:44.060Z,0.40
2022-09-27T14:51:56.841Z,0.52
2022-09-27T14:55:19.187Z,0.30
2022-09-27T14:58:46.082Z,0.32
2022-09-27T15:01:51.748Z,0.30
2022-09-27T15:04:56.550Z,0.40
2022-09-27T15:08:06.517Z,0.40
2022-09-27T15:11:11.565Z,0.40
2022-09-27T15:14:22.343Z,0.40
2022-09-27T15:17:26.812Z,0.70
2022-09-27T15:20:35.900Z,0.50
2022-09-27T15:23:45.248Z,0.50
2022-09-27T15:26:51.175Z,0.40
2022-09-27T15:29:58.248Z,0.47
2022-09-27T15:33:03.913Z,0.40
2022-09-27T15:36:11.563Z,0.50
2022-09-27T15:39:21.012Z,0.50
2022-09-27T15:42:25.430Z,0.50
2022-09-27T15:45:33.880Z,0.45
2022-09-27T15:48:38.709Z,0.50
2022-09-27T15:51:46.076Z,0.47
2022-09-27T15:54:52.457Z,0.45
2022-09-27T15:58:08.321Z,0.60
2022-09-27T16:01:19.630Z,0.60
2022-09-27T16:04:26.172Z,0.57
2022-09-27T16:07:30.591Z,0.50
2022-09-27T16:10:48.455Z,0.70
2022-09-27T16:13:54.861Z,0.60
2022-09-27T16:17:00.054Z,0.47
2022-09-27T16:20:06.449Z,0.60
2022-09-27T16:23:11.153Z,0.75
2022-09-27T16:26:15.654Z,0.82
2022-09-27T16:29:19.964Z,0.60
2022-09-27T16:32:25.313Z,0.63
2022-09-27T16:35:30.467Z,0.70
2022-09-27T16:38:35.020Z,0.70
2022-09-27T16:41:43.635Z,0.93
2022-09-27T16:44:50.405Z,0.70
2022-09-27T16:47:54.734Z,0.80
2022-09-27T16:51:28.445Z,0.90
2022-09-27T16:54:32.831Z,1.00
2022-09-27T16:57:38.245Z,1.10
2022-09-27T17:00:43.305Z,1.17
2022-09-27T17:03:57.325Z,1.20
2022-09-27T17:07:02.725Z,1.20
2022-09-27T17:10:09.025Z,1.20
2022-09-27T17:13:13.461Z,1.30
2022-09-27T17:16:17.873Z,1.20
2022-09-27T17:19:23.328Z,1.10
2022-09-27T17:22:29.162Z,1.00
2022-09-27T17:25:33.653Z,1.48
2022-09-27T17:28:38.758Z,1.00
2022-09-27T17:31:44.604Z,0.95
2022-09-27T17:34:49.425Z,1.27
2022-09-27T17:37:54.372Z,0.82
2022-09-27T17:41:04.491Z,0.90
2022-09-27T17:44:13.338Z,0.73
2022-09-27T17:47:35.953Z,0.70
2022-09-27T17:50:40.296Z,0.77
2022-09-27T17:53:44.816Z,0.60
2022-09-27T17:56:50.541Z,0.70
2022-09-27T17:59:57.765Z,0.98
2022-09-27T18:03:02.401Z,0.80
2022-09-27T18:06:09.301Z,0.80
2022-09-27T18:09:16.650Z,0.73
2022-09-27T18:12:21.781Z,0.65
2022-09-27T18:15:26.639Z,0.90
2022-09-27T18:18:34.262Z,0.82
2022-09-27T18:21:39.594Z,1.17
2022-09-27T18:24:44.169Z,1.27
2022-09-27T18:27:51.498Z,1.27
2022-09-27T18:31:02.317Z,1.10
2022-09-27T18:34:08.030Z,1.00
2022-09-27T18:37:12.438Z,1.00
2022-09-27T18:40:32.318Z,1.15
2022-09-27T18:43:44.686Z,0.90
2022-09-27T18:46:51.422Z,0.82
2022-09-27T18:49:56.346Z,0.85
2022-09-27T18:53:01.298Z,0.80
2022-09-27T18:56:09.336Z,0.70
2022-09-27T18:59:14.804Z,0.80
2022-09-27T19:02:19.706Z,0.88
2022-09-27T19:05:24.069Z,0.65
2022-09-27T19:08:28.780Z,1.02
2022-09-27T19:11:34.191Z,0.90
2022-09-27T19:14:38.845Z,0.82
2022-09-27T19:17:43.531Z,0.70
2022-09-27T19:20:47.857Z,1.00
2022-09-27T19:23:52.735Z,0.70
2022-09-27T19:26:57.643Z,0.80
2022-09-27T19:30:02.494Z,0.60
2022-09-27T19:33:08.414Z,0.60
2022-09-27T19:36:15.871Z,0.77
2022-09-27T19:39:20.373Z,0.90
2022-09-27T19:42:25.023Z,0.98
2022-09-27T19:45:29.698Z,0.85
2022-09-27T19:48:36.889Z,1.00
2022-09-27T19:51:41.360Z,0.88
2022-09-27T19:54:45.911Z,0.77
2022-09-27T19:57:50.641Z,0.90
2022-09-27T20:01:20.341Z,0.82
2022-09-27T20:04:28.145Z,1.17
2022-09-27T20:07:35.131Z,0.73
2022-09-27T20:10:39.385Z,0.98
2022-09-27T20:13:44.928Z,0.90
2022-09-27T20:16:51.016Z,1.08
2022-09-27T20:19:56.376Z,0.82
2022-09-27T20:23:01.137Z,0.90
2022-09-27T20:26:14.781Z,0.98
2022-09-27T20:35:34.214Z,1.00
2022-09-27T20:38:43.417Z,0.80
2022-09-27T20:41:47.874Z,1.00
2022-09-27T20:44:54.461Z,1.30
2022-09-27T20:47:59.205Z,1.35
2022-09-27T20:51:05.201Z,1.25
2022-09-27T20:54:12.541Z,1.50
2022-09-27T20:57:17.175Z,1.48
2022-09-27T21:00:22.151Z,1.50
2022-09-27T21:03:26.944Z,1.65
2022-09-27T21:06:32.626Z,1.60
2022-09-27T21:09:38.674Z,2.15
2022-09-27T21:12:43.201Z,2.20
2022-09-27T21:15:47.665Z,1.88
2022-09-27T21:18:55.554Z,1.60
2022-09-27T21:22:00.102Z,2.30
2022-09-27T21:25:05.556Z,2.00
2022-09-27T21:28:09.919Z,2.47
2022-09-27T21:31:27.079Z,2.10
2022-09-27T21:34:31.712Z,2.60
2022-09-27T21:37:36.244Z,2.10
2022-09-27T21:40:40.980Z,2.65
2022-09-27T21:43:47.808Z,2.10
2022-09-27T21:46:52.352Z,2.35
2022-09-27T21:49:57.129Z,2.70
2022-09-27T21:53:01.773Z,2.33
2022-09-27T21:56:07.711Z,1.92
2022-09-27T21:59:15.288Z,2.30
2022-09-27T22:02:20.278Z,2.40
2022-09-27T22:05:25.060Z,2.47
2022-09-27T22:08:29.881Z,2.88
2022-09-27T22:11:38.856Z,2.50
2022-09-27T22:14:43.570Z,2.30
2022-09-27T22:17:47.953Z,2.22
2022-09-27T22:20:52.694Z,2.20
2022-09-27T22:24:08.236Z,2.50
2022-09-27T22:27:12.668Z,1.90
2022-09-27T22:30:18.031Z,2.20
2022-09-27T22:33:22.907Z,2.65
2022-09-27T22:36:28.076Z,2.40
2022-09-27T22:39:32.512Z,2.08
2022-09-27T22:42:37.192Z,2.50
2022-09-27T22:45:41.984Z,2.13
2022-09-27T22:48:46.036Z,2.28
2022-09-27T22:51:50.562Z,2.13
2022-09-27T22:54:55.200Z,1.98
2022-09-27T22:57:59.990Z,2.47
2022-09-27T23:01:13.937Z,2.67
2022-09-27T23:04:18.511Z,2.20
2022-09-27T23:07:23.532Z,2.22
2022-09-27T23:10:27.801Z,2.03
2022-09-27T23:13:39.143Z,2.47
2022-09-27T23:16:43.753Z,2.40
2022-09-27T23:19:47.858Z,2.30
2022-09-27T23:22:53.763Z,2.05
2022-09-27T23:26:04.697Z,1.92
2022-09-27T23:29:11.063Z,2.25
2022-09-27T23:32:15.566Z,2.38
2022-09-27T23:35:20.229Z,2.50
2022-09-27T23:38:24.599Z,2.38
2022-09-27T23:41:29.424Z,2.10
2022-09-27T23:44:34.008Z,2.50
2022-09-27T23:47:40.177Z,2.53
2022-09-27T23:50:44.379Z,2.55
2022-09-27T23:53:49.293Z,2.58
2022-09-27T23:56:53.717Z,2.40
2022-09-27T23:59:58.742Z,2.50
